Airfield :
LOGIN :

Register | Disclaimer

   EN    FR    IT 

 










Legend :    VFR   Marginal VFR   IFR   Intensive IFR   Very Intensive IFR
Visi :
Ceiling :
>= 8 km
>= 3000ft
5 to 8 km
1000 to 3000 ft
1500m to 5 km
500 to 1000 ft
800 to 1500m
200 to 500 ft
< 800m
< 200 ft
Symbols :   Thunderstorms  Fog  Heavy snow  Heavy precipitations  Wind > 20 kt
SIGMETs :     Misc.  Thunderstorms  Icing  Turbulence  Mountain Waves  Volcanic Ashes







- Airport Elevation : 16 ft
- IATA code : LPX


EVLA - Liepaja

CURRENT METAR :
  • 180420Z AUTO 00000KT 8000 OVC049/// M06/M06 Q1024

EXPIRED METARs :
  • 180350Z AUTO 00000KT 8000 OVC048/// M06/M06 Q1024
  • 180320Z AUTO 00000KT 7000 OVC048/// M07/M07 Q1024
  • 180250Z AUTO 00000KT 7000 OVC047/// M07/M07 Q1024
  • 180220Z AUTO 00000KT 7000 FEW040/// OVC047/// M08/M08 Q1024
  • 180150Z AUTO 00000KT 0650 R06/P2000N R24/0750N FG SCT020/// BKN048/// M08/M08 Q1024

TAF TAF EVLA
Valid from the 18 at 03:00 until the 19 at 03:00 UTC


180202Z 1803/1903 36007KT 8000 SCT008 BKN020
TEMPO 1803/1809 2000 SHSN BKN010 BKN015CB
PROB40
TEMPO 1803/1809 0500 +SHSN VV002
BECMG 1811/1813 25010KT
TEMPO 1813/1821 2500 SN
No reported NOTAMs for that airfield.



MET'MAP, your aeronautical weather chart ! - Copyright ORBIFLY December 2007 - Disclaimer

ORBIFLY MET'MAP TEAM :

Programming & Development : Alexandra Zaïnal
Concept & Development : Baudouin d'Aumeries
Co-Development & Prog : Marc-Olivier Méhu
Technical & hardware support : Manuel Goepfert

Contact : metmap@orbifly.com




SOURCES & CREDITS :

   NOAA